KIRK/IRK METAR and TAF weather

Enter ICAO airport designator
Station Type Date Time Source
KIRK METAR 2022/07/01 00:55 UTC NOAA

KIRK 010055Z AUTO 17005KT 10SM CLR 26/18 A2994 RMK AO2 SLP133 T02610183


Station Type Date Time Source
KIRK Decoded METAR 2022/07/01 00:55 UTC NOAA

KIRKSVILLE REGIONAL AIRPORT , MO, United States (KIRK) 40-06N 092-33W 293M
Jun 30, 2022 - 08:55 PM EDT / 2022.07.01 0055 UTC
Wind: from the S (170 degrees) at 6 MPH (5 KT):0
Visibility: 10 mile(s):0
Sky conditions: clear
Temperature: 79.0 F (26.1 C)
Dew Point: 64.9 F (18.3 C)
Relative Humidity: 62%
Pressure (altimeter): 29.94 in. Hg (1013 hPa)
ob: KIRK 010055Z AUTO 17005KT 10SM CLR 26/18 A2994 RMK AO2 SLP133 T02610183
cycle: 1

Station Type Date Time Source
KIRK TAF UTC NOAA

Error!

Example: see airport list